Terminal Aerodrome Forecast
Issued by NWS Boston, MA

Home | Current Version | Previous Version | Text Only | Print | Product List | Glossary On
Versions: 1 2 3 4 5 6 7 8 9 10 11 12 13 14 15 16 17
000
FTUS41 KBOX 211931 AAA
TAFORH
TAF AMD
KORH 211931Z 2120/2218 27010KT P6SM FEW045
     FM220200 28006KT P6SM FEW140=

USA.gov is the U.S. government's official web portal to all federal, state and local government web resources and services.